createdAt,value
2023-04-21T00:01:02.779Z,7.72
2023-04-21T00:06:07.350Z,15.07
2023-04-21T00:11:10.101Z,17.90
2023-04-21T00:16:12.936Z,11.02
2023-04-21T00:21:16.425Z,14.10
2023-04-21T00:26:19.116Z,13.30
2023-04-21T00:36:28.260Z,13.48
2023-04-21T00:41:31.407Z,13.48
2023-04-21T00:46:34.975Z,17.48
2023-04-21T00:51:38.095Z,16.05
2023-04-21T00:56:40.681Z,26.20
2023-04-21T01:01:43.405Z,23.75
2023-04-21T01:06:46.278Z,15.70
2023-04-21T01:12:09.661Z,24.13
2023-04-21T01:17:12.436Z,17.40
2023-04-21T01:22:15.484Z,13.75
2023-04-21T01:27:21.257Z,21.58
2023-04-21T01:32:27.621Z,18.17
2023-04-21T01:37:32.767Z,18.75
2023-04-21T01:42:38.758Z,12.23
2023-04-21T01:47:41.414Z,23.98
2023-04-21T01:52:44.173Z,14.05
2023-04-21T01:57:46.790Z,18.73
2023-04-21T02:02:49.535Z,18.10
2023-04-21T02:07:52.767Z,17.13
2023-04-21T02:12:57.974Z,15.60
2023-04-21T02:18:00.836Z,21.20
2023-04-21T02:23:03.635Z,25.55
2023-04-21T02:28:06.322Z,18.20
2023-04-21T02:33:08.925Z,13.80
2023-04-21T02:38:13.627Z,12.02
2023-04-21T02:43:18.286Z,14.55
2023-04-21T02:48:23.223Z,9.07
2023-04-21T02:53:27.053Z,22.25
2023-04-21T02:58:29.723Z,13.00
2023-04-21T03:03:33.287Z,10.20
2023-04-21T03:08:36.164Z,13.73
2023-04-21T03:13:38.706Z,11.43
2023-04-21T03:18:41.379Z,18.85
2023-04-21T03:23:44.047Z,10.00
2023-04-21T03:28:46.879Z,8.98
2023-04-21T03:33:49.470Z,9.13
2023-04-21T03:38:52.050Z,24.38
2023-04-21T03:43:54.842Z,12.77
2023-04-21T03:48:57.394Z,12.80
2023-04-21T03:54:00.020Z,13.32
2023-04-21T03:59:02.702Z,10.00
2023-04-21T04:04:05.898Z,14.68
2023-04-21T04:09:09.302Z,21.17
2023-04-21T04:14:11.947Z,22.38
2023-04-21T04:19:14.596Z,23.80
2023-04-21T04:24:17.225Z,17.85
2023-04-21T04:29:20.300Z,20.70
2023-04-21T04:34:24.622Z,16.08
2023-04-21T04:39:27.205Z,18.52
2023-04-21T04:44:30.072Z,13.85
2023-04-21T04:49:32.695Z,19.25
2023-04-21T04:54:35.296Z,12.07
2023-04-21T04:59:37.850Z,7.47
2023-04-21T05:04:40.613Z,18.63
2023-04-21T05:09:43.272Z,18.05
2023-04-21T05:14:45.940Z,12.88
2023-04-21T05:19:48.792Z,12.98
2023-04-21T05:24:51.431Z,16.20
2023-04-21T05:29:55.301Z,15.00
2023-04-21T05:34:58.000Z,8.75
2023-04-21T05:40:03.050Z,17.23
2023-04-21T05:45:06.746Z,9.73
2023-04-21T05:50:09.712Z,20.45
2023-04-21T05:55:12.304Z,14.68
2023-04-21T06:00:16.208Z,12.05
2023-04-21T06:05:19.107Z,6.85
2023-04-21T06:10:21.811Z,13.00
2023-04-21T06:15:24.384Z,8.43
2023-04-21T06:20:27.692Z,15.68
2023-04-21T06:25:30.647Z,13.88
2023-04-21T06:30:33.856Z,10.90
2023-04-21T06:35:36.495Z,22.80
2023-04-21T06:40:39.191Z,28.70
2023-04-21T06:45:41.882Z,17.17
2023-04-21T06:50:46.515Z,22.15
2023-04-21T06:55:49.613Z,17.58
2023-04-21T07:00:52.350Z,20.92
2023-04-21T07:06:21.241Z,20.42
2023-04-21T07:11:25.718Z,20.00
2023-04-21T07:16:29.769Z,27.77
2023-04-21T07:21:36.631Z,23.10
2023-04-21T07:26:40.602Z,17.13
2023-04-21T07:36:46.429Z,20.67
2023-04-21T07:41:49.486Z,24.63
2023-04-21T07:46:53.551Z,19.35
2023-04-21T07:51:58.632Z,17.85
2023-04-21T07:57:02.937Z,19.88
2023-04-21T08:02:06.364Z,26.13
2023-04-21T08:07:16.054Z,19.08
2023-04-21T08:12:26.030Z,27.30
2023-04-21T08:17:32.481Z,30.92
2023-04-21T08:22:38.368Z,29.75
2023-04-21T08:27:42.107Z,20.88
2023-04-21T08:32:45.675Z,14.98
2023-04-21T08:38:38.229Z,12.45
2023-04-21T08:43:40.937Z,17.05
2023-04-21T08:48:46.855Z,18.67
2023-04-21T08:53:49.881Z,12.10
2023-04-21T08:58:52.864Z,13.07
2023-04-21T09:04:17.557Z,11.80
2023-04-21T09:09:28.338Z,8.30
2023-04-21T09:14:35.886Z,12.00
2023-04-21T09:19:41.964Z,14.30
2023-04-21T09:24:49.243Z,13.20
2023-04-21T09:29:53.172Z,10.45
2023-04-21T09:35:01.213Z,15.18
2023-04-21T09:40:07.270Z,12.95
2023-04-21T09:50:39.220Z,11.77
2023-04-21T09:55:50.371Z,17.60
2023-04-21T10:00:56.124Z,15.80
2023-04-21T10:05:59.202Z,10.98
2023-04-21T10:11:03.484Z,12.40
2023-04-21T10:16:08.814Z,15.52
2023-04-21T10:21:13.366Z,15.95
2023-04-21T10:26:20.824Z,15.10
2023-04-21T10:42:24.801Z,19.47
2023-04-21T10:52:43.739Z,28.65
2023-04-21T10:57:49.821Z,28.75
2023-04-21T11:02:57.634Z,34.88
2023-04-21T11:08:07.056Z,36.00
2023-04-21T11:13:11.629Z,26.52
2023-04-21T11:18:16.674Z,25.90
2023-04-21T11:23:20.796Z,35.35
2023-04-21T11:28:25.211Z,34.08
2023-04-21T11:33:31.059Z,37.65
2023-04-21T11:38:39.232Z,27.42
2023-04-21T11:43:46.871Z,37.30
2023-04-21T11:49:00.191Z,26.02
2023-04-21T11:54:29.540Z,30.05
2023-04-21T11:59:32.902Z,18.88
2023-04-21T12:04:36.977Z,18.83
2023-04-21T12:09:39.984Z,18.77
2023-04-21T12:14:45.463Z,23.52
2023-04-21T12:19:48.589Z,19.85
2023-04-21T12:24:51.204Z,18.30
2023-04-21T12:29:54.104Z,18.38
2023-04-21T12:35:00.678Z,20.95
2023-04-21T12:40:03.628Z,22.58
2023-04-21T12:45:08.139Z,18.90
2023-04-21T12:50:11.549Z,18.77
2023-04-21T12:55:14.233Z,18.95
2023-04-21T13:00:17.637Z,19.35
2023-04-21T13:05:20.506Z,24.98
2023-04-21T13:10:23.317Z,31.88
2023-04-21T13:15:26.030Z,18.05
2023-04-21T13:25:31.081Z,19.60
2023-04-21T13:30:35.139Z,20.05
2023-04-21T13:35:38.533Z,16.58
2023-04-21T13:40:41.546Z,21.60
2023-04-21T13:45:44.508Z,18.80
2023-04-21T13:50:47.657Z,18.17
2023-04-21T13:55:50.604Z,25.95
2023-04-21T14:00:53.236Z,16.77
2023-04-21T14:05:57.172Z,26.58
2023-04-21T14:10:59.886Z,15.02
2023-04-21T14:21:05.100Z,21.35
2023-04-21T14:26:07.789Z,20.13
2023-04-21T14:31:10.797Z,23.65
2023-04-21T14:36:13.449Z,22.92
2023-04-21T14:46:18.417Z,23.65
2023-04-21T14:51:21.848Z,23.65
2023-04-21T14:56:24.507Z,24.33
2023-04-21T15:01:27.278Z,20.13
2023-04-21T15:06:29.879Z,19.65
2023-04-21T15:11:34.294Z,20.77
2023-04-21T15:16:38.218Z,18.45
2023-04-21T15:21:41.082Z,19.70
2023-04-21T15:26:44.215Z,22.98
2023-04-21T15:31:47.091Z,18.95
2023-04-21T15:36:49.706Z,20.23
2023-04-21T15:41:53.454Z,24.65
2023-04-21T15:46:56.246Z,14.85
2023-04-21T15:51:59.076Z,21.13
2023-04-21T15:57:03.157Z,25.17
2023-04-21T16:02:06.082Z,21.55
2023-04-21T16:07:09.986Z,24.50
2023-04-21T16:12:12.838Z,18.02
2023-04-21T16:17:15.510Z,24.17
2023-04-21T16:22:20.300Z,23.30
2023-04-21T16:27:22.973Z,27.60
2023-04-21T16:32:26.163Z,22.58
2023-04-21T16:37:28.979Z,25.27
2023-04-21T16:42:33.153Z,32.83
2023-04-21T16:47:41.297Z,37.40
2023-04-21T16:52:45.208Z,31.67
2023-04-21T16:57:48.502Z,35.90
2023-04-21T17:02:51.178Z,46.45
2023-04-21T17:07:54.149Z,47.85
2023-04-21T17:12:56.694Z,42.25
2023-04-21T17:17:59.324Z,44.05
2023-04-21T17:23:02.030Z,34.70
2023-04-21T17:28:05.560Z,30.05
2023-04-21T17:33:16.356Z,18.73
2023-04-21T17:38:20.137Z,15.48
2023-04-21T17:43:22.798Z,20.02
2023-04-21T17:48:25.426Z,22.67
2023-04-21T17:53:28.430Z,19.25
2023-04-21T17:58:31.045Z,19.88
2023-04-21T18:03:36.375Z,23.58
2023-04-21T18:08:39.123Z,29.85
2023-04-21T18:13:41.775Z,23.67
2023-04-21T18:18:44.724Z,19.42
2023-04-21T18:23:47.566Z,25.88
2023-04-21T18:28:50.196Z,32.10
2023-04-21T18:33:54.892Z,43.95
2023-04-21T18:38:58.593Z,40.10
2023-04-21T18:44:01.233Z,50.05
2023-04-21T18:49:04.054Z,35.67
2023-04-21T18:54:06.828Z,38.03
2023-04-21T18:59:09.951Z,39.60
2023-04-21T19:04:13.420Z,27.40
2023-04-21T19:09:17.044Z,25.73
2023-04-21T19:14:19.737Z,19.13
2023-04-21T19:19:22.611Z,24.52
2023-04-21T19:24:25.350Z,30.23
2023-04-21T19:29:28.181Z,27.95
2023-04-21T19:34:30.804Z,29.52
2023-04-21T19:39:33.612Z,21.27
2023-04-21T19:44:36.671Z,26.63
2023-04-21T19:49:40.037Z,28.50
2023-04-21T19:54:42.784Z,28.45
2023-04-21T19:59:45.563Z,18.08
2023-04-21T20:04:49.446Z,16.15
2023-04-21T20:09:52.248Z,20.55
2023-04-21T20:14:54.893Z,15.88
2023-04-21T20:19:59.014Z,16.20
2023-04-21T20:25:01.571Z,15.25
2023-04-21T20:30:07.980Z,20.10
2023-04-21T20:35:12.429Z,22.20
2023-04-21T20:40:18.757Z,19.88
2023-04-21T20:45:22.541Z,16.85
2023-04-21T20:50:26.134Z,16.25
2023-04-21T20:55:28.812Z,20.70
2023-04-21T21:00:34.466Z,17.23
2023-04-21T21:05:38.280Z,20.90
2023-04-21T21:10:40.898Z,20.05
2023-04-21T21:15:43.628Z,22.88
2023-04-21T21:20:46.200Z,19.67
2023-04-21T21:25:49.344Z,18.55
2023-04-21T21:30:52.427Z,17.73
2023-04-21T21:35:55.047Z,18.10
2023-04-21T21:40:57.568Z,19.05
2023-04-21T21:46:00.473Z,18.17
2023-04-21T21:51:04.470Z,16.77
2023-04-21T21:56:07.613Z,23.17
2023-04-21T22:01:10.203Z,19.20
2023-04-21T22:06:16.246Z,21.52
2023-04-21T22:11:20.778Z,21.23
2023-04-21T22:16:23.680Z,24.42
2023-04-21T22:21:27.606Z,23.08
2023-04-21T22:26:30.234Z,23.52
2023-04-21T22:31:33.121Z,25.50
2023-04-21T22:36:36.595Z,24.92
2023-04-21T22:41:39.192Z,37.33
2023-04-21T22:46:42.826Z,34.78
2023-04-21T22:51:47.462Z,26.85
2023-04-21T22:56:50.298Z,24.92
2023-04-21T23:01:52.865Z,20.52
2023-04-21T23:06:55.462Z,19.65
2023-04-21T23:11:58.254Z,23.60
2023-04-21T23:17:01.060Z,21.65
2023-04-21T23:22:03.797Z,15.32
2023-04-21T23:27:06.349Z,14.90
2023-04-21T23:32:09.069Z,20.92
2023-04-21T23:37:11.866Z,18.45
2023-04-21T23:42:14.399Z,19.65
2023-04-21T23:47:16.975Z,14.18
2023-04-21T23:52:19.564Z,22.02
2023-04-21T23:57:22.330Z,17.17
